sensor_id;sensor_type;location;lat;lon;timestamp;pressure;altitude;pressure_sealevel;temperature;humidity
70407;BME280;57821;52.202;0.154;2023-04-30T00:01:01;102270.34;;;10.11;72.87
70407;BME280;57821;52.202;0.154;2023-04-30T00:03:28;102268.66;;;10.11;72.47
70407;BME280;57821;52.202;0.154;2023-04-30T00:05:54;102260.78;;;10.08;73.17
70407;BME280;57821;52.202;0.154;2023-04-30T00:08:21;102257.25;;;10.05;73.12
70407;BME280;57821;52.202;0.154;2023-04-30T00:10:47;102263.28;;;10.04;73.47
70407;BME280;57821;52.202;0.154;2023-04-30T00:13:14;102261.53;;;10.03;73.56
70407;BME280;57821;52.202;0.154;2023-04-30T00:15:40;102266.69;;;10.01;73.89
70407;BME280;57821;52.202;0.154;2023-04-30T00:18:07;102258.84;;;9.98;73.68
70407;BME280;57821;52.202;0.154;2023-04-30T00:20:33;102257.91;;;9.95;73.85
70407;BME280;57821;52.202;0.154;2023-04-30T00:23:00;102254.34;;;9.89;74.38
70407;BME280;57821;52.202;0.154;2023-04-30T00:25:26;102256.06;;;9.90;74.56
70407;BME280;57821;52.202;0.154;2023-04-30T00:27:52;102257.78;;;9.88;74.31
70407;BME280;57821;52.202;0.154;2023-04-30T00:30:19;102252.50;;;9.85;74.69
70407;BME280;57821;52.202;0.154;2023-04-30T00:32:46;102249.03;;;9.83;75.13
70407;BME280;57821;52.202;0.154;2023-04-30T00:35:12;102239.44;;;9.81;75.25
70407;BME280;57821;52.202;0.154;2023-04-30T00:37:39;102248.00;;;9.78;75.84
70407;BME280;57821;52.202;0.154;2023-04-30T00:40:06;102245.38;;;9.75;76.33
70407;BME280;57821;52.202;0.154;2023-04-30T00:42:33;102250.44;;;9.71;76.62
70407;BME280;57821;52.202;0.154;2023-04-30T00:44:59;102245.16;;;9.66;77.13
70407;BME280;57821;52.202;0.154;2023-04-30T00:47:26;102240.81;;;9.65;76.81
70407;BME280;57821;52.202;0.154;2023-04-30T00:49:53;102245.06;;;9.63;76.86
70407;BME280;57821;52.202;0.154;2023-04-30T00:52:20;102245.91;;;9.61;77.58
70407;BME280;57821;52.202;0.154;2023-04-30T00:54:47;102246.69;;;9.58;77.38
70407;BME280;57821;52.202;0.154;2023-04-30T00:57:14;102244.09;;;9.58;77.52
70407;BME280;57821;52.202;0.154;2023-04-30T00:59:40;102249.22;;;9.57;77.39
70407;BME280;57821;52.202;0.154;2023-04-30T01:02:07;102252.69;;;9.57;77.30
70407;BME280;57821;52.202;0.154;2023-04-30T01:04:35;102247.47;;;9.56;77.13
70407;BME280;57821;52.202;0.154;2023-04-30T01:07:01;102250.94;;;9.56;77.85
70407;BME280;57821;52.202;0.154;2023-04-30T01:09:28;102244.88;;;9.54;77.75
70407;BME280;57821;52.202;0.154;2023-04-30T01:12:07;102250.88;;;9.53;78.71
70407;BME280;57821;52.202;0.154;2023-04-30T01:20:27;102240.41;;;9.48;78.79
70407;BME280;57821;52.202;0.154;2023-04-30T01:23:18;102252.50;;;9.48;79.79
70407;BME280;57821;52.202;0.154;2023-04-30T01:28:35;102257.56;;;9.45;79.23
70407;BME280;57821;52.202;0.154;2023-04-30T01:31:01;102253.22;;;9.44;78.85
70407;BME280;57821;52.202;0.154;2023-04-30T01:33:28;102254.09;;;9.43;79.21
70407;BME280;57821;52.202;0.154;2023-04-30T01:36:08;102254.94;;;9.42;80.07
70407;BME280;57821;52.202;0.154;2023-04-30T01:44:23;102253.84;;;9.34;79.41
70407;BME280;57821;52.202;0.154;2023-04-30T01:47:00;102248.56;;;9.29;79.57
70407;BME280;57821;52.202;0.154;2023-04-30T01:52:35;102256.31;;;9.29;79.75
70407;BME280;57821;52.202;0.154;2023-04-30T01:55:08;102259.78;;;9.30;79.11
70407;BME280;57821;52.202;0.154;2023-04-30T01:57:40;102258.03;;;9.29;79.23
70407;BME280;57821;52.202;0.154;2023-04-30T02:00:08;102260.56;;;9.26;78.91
70407;BME280;57821;52.202;0.154;2023-04-30T02:02:38;102254.47;;;9.24;79.16
70407;BME280;57821;52.202;0.154;2023-04-30T02:05:05;102252.69;;;9.23;79.51
70407;BME280;57821;52.202;0.154;2023-04-30T02:07:38;102249.19;;;9.21;79.78
70407;BME280;57821;52.202;0.154;2023-04-30T02:10:07;102247.38;;;9.17;78.93
70407;BME280;57821;52.202;0.154;2023-04-30T02:12:34;102249.03;;;9.15;79.60
70407;BME280;57821;52.202;0.154;2023-04-30T02:15:01;102253.31;;;9.13;79.12
70407;BME280;57821;52.202;0.154;2023-04-30T02:17:28;102247.16;;;9.09;79.52
70407;BME280;57821;52.202;0.154;2023-04-30T02:19:54;102254.03;;;9.08;79.34
70407;BME280;57821;52.202;0.154;2023-04-30T02:22:21;102247.94;;;9.05;78.83
70407;BME280;57821;52.202;0.154;2023-04-30T02:24:48;102252.16;;;9.01;79.00
70407;BME280;57821;52.202;0.154;2023-04-30T02:27:15;102246.97;;;9.01;79.29
70407;BME280;57821;52.202;0.154;2023-04-30T02:29:41;102250.31;;;8.97;79.22
70407;BME280;57821;52.202;0.154;2023-04-30T02:32:08;102252.88;;;8.96;79.36
70407;BME280;57821;52.202;0.154;2023-04-30T02:34:34;102240.72;;;8.93;79.66
70407;BME280;57821;52.202;0.154;2023-04-30T02:37:02;102249.28;;;8.91;79.92
70407;BME280;57821;52.202;0.154;2023-04-30T02:39:28;102251.84;;;8.89;79.56
70407;BME280;57821;52.202;0.154;2023-04-30T02:41:55;102253.50;;;8.87;80.02
70407;BME280;57821;52.202;0.154;2023-04-30T02:44:21;102251.72;;;8.86;80.13
70407;BME280;57821;52.202;0.154;2023-04-30T02:46:48;102250.84;;;8.84;80.07
70407;BME280;57821;52.202;0.154;2023-04-30T02:49:14;102248.16;;;8.81;79.78
70407;BME280;57821;52.202;0.154;2023-04-30T02:51:41;102253.25;;;8.78;80.21
70407;BME280;57821;52.202;0.154;2023-04-30T02:54:07;102249.75;;;8.76;80.41
70407;BME280;57821;52.202;0.154;2023-04-30T02:56:34;102257.44;;;8.75;79.90
70407;BME280;57821;52.202;0.154;2023-04-30T02:59:00;102253.09;;;8.72;80.32
70407;BME280;57821;52.202;0.154;2023-04-30T03:01:27;102248.69;;;8.70;80.09
70407;BME280;57821;52.202;0.154;2023-04-30T03:03:53;102244.28;;;8.65;80.54
70407;BME280;57821;52.202;0.154;2023-04-30T03:06:20;102255.44;;;8.64;81.01
70407;BME280;57821;52.202;0.154;2023-04-30T03:08:47;102256.28;;;8.63;80.43
70407;BME280;57821;52.202;0.154;2023-04-30T03:11:13;102249.34;;;8.61;80.97
70407;BME280;57821;52.202;0.154;2023-04-30T03:13:40;102251.88;;;8.59;81.20
70407;BME280;57821;52.202;0.154;2023-04-30T03:16:06;102243.16;;;8.56;81.37
70407;BME280;57821;52.202;0.154;2023-04-30T03:18:33;102244.00;;;8.55;81.17
70407;BME280;57821;52.202;0.154;2023-04-30T03:20:59;102237.88;;;8.53;81.84
70407;BME280;57821;52.202;0.154;2023-04-30T03:23:26;102242.13;;;8.51;81.48
70407;BME280;57821;52.202;0.154;2023-04-30T03:25:53;102231.75;;;8.49;82.15
70407;BME280;57821;52.202;0.154;2023-04-30T03:28:20;102232.59;;;8.48;82.04
70407;BME280;57821;52.202;0.154;2023-04-30T03:30:46;102233.41;;;8.47;82.01
70407;BME280;57821;52.202;0.154;2023-04-30T03:33:13;102229.06;;;8.46;81.90
70407;BME280;57821;52.202;0.154;2023-04-30T03:35:40;102235.94;;;8.44;82.45
70407;BME280;57821;52.202;0.154;2023-04-30T03:38:06;102239.34;;;8.43;82.39
70407;BME280;57821;52.202;0.154;2023-04-30T03:40:33;102239.28;;;8.42;82.56
70407;BME280;57821;52.202;0.154;2023-04-30T03:42:59;102234.94;;;8.41;82.44
70407;BME280;57821;52.202;0.154;2023-04-30T03:45:26;102238.38;;;8.40;83.02
70407;BME280;57821;52.202;0.154;2023-04-30T03:47:52;102227.06;;;8.36;82.76
70407;BME280;57821;52.202;0.154;2023-04-30T03:50:19;102232.28;;;8.38;83.17
70407;BME280;57821;52.202;0.154;2023-04-30T03:52:46;102231.38;;;8.36;82.36
70407;BME280;57821;52.202;0.154;2023-04-30T03:55:14;102234.78;;;8.35;83.04
70407;BME280;57821;52.202;0.154;2023-04-30T03:57:41;102232.13;;;8.32;83.23
70407;BME280;57821;52.202;0.154;2023-04-30T04:00:09;102231.28;;;8.33;83.71
70407;BME280;57821;52.202;0.154;2023-04-30T04:02:39;102231.25;;;8.31;83.78
70407;BME280;57821;52.202;0.154;2023-04-30T04:05:09;102225.97;;;8.30;83.34
70407;BME280;57821;52.202;0.154;2023-04-30T04:07:35;102228.50;;;8.28;83.64
70407;BME280;57821;52.202;0.154;2023-04-30T04:10:02;102221.59;;;8.27;83.76
70407;BME280;57821;52.202;0.154;2023-04-30T04:12:30;102231.03;;;8.25;83.63
70407;BME280;57821;52.202;0.154;2023-04-30T04:14:56;102227.56;;;8.24;83.54
70407;BME280;57821;52.202;0.154;2023-04-30T04:17:24;102225.81;;;8.23;84.00
70407;BME280;57821;52.202;0.154;2023-04-30T04:19:50;102229.22;;;8.22;83.43
70407;BME280;57821;52.202;0.154;2023-04-30T04:22:17;102232.63;;;8.21;83.78
70407;BME280;57821;52.202;0.154;2023-04-30T04:24:45;102230.03;;;8.20;83.88
70407;BME280;57821;52.202;0.154;2023-04-30T04:27:14;102228.25;;;8.19;83.43
70407;BME280;57821;52.202;0.154;2023-04-30T04:29:41;102224.75;;;8.17;82.65
70407;BME280;57821;52.202;0.154;2023-04-30T04:32:07;102232.44;;;8.15;82.96
70407;BME280;57821;52.202;0.154;2023-04-30T04:34:34;102228.03;;;8.11;83.16
70407;BME280;57821;52.202;0.154;2023-04-30T04:37:01;102229.72;;;8.11;83.51
70407;BME280;57821;52.202;0.154;2023-04-30T04:39:27;102230.53;;;8.08;83.47
70407;BME280;57821;52.202;0.154;2023-04-30T04:41:54;102229.59;;;8.06;83.63
70407;BME280;57821;52.202;0.154;2023-04-30T04:44:20;102228.72;;;8.06;83.42
70407;BME280;57821;52.202;0.154;2023-04-30T04:46:47;102232.97;;;8.04;83.10
70407;BME280;57821;52.202;0.154;2023-04-30T04:49:14;102225.19;;;8.02;82.99
70407;BME280;57821;52.202;0.154;2023-04-30T04:51:40;102229.47;;;8.02;83.52
70407;BME280;57821;52.202;0.154;2023-04-30T04:54:07;102221.66;;;8.00;83.33
70407;BME280;57821;52.202;0.154;2023-04-30T04:56:33;102220.84;;;8.01;83.48
70407;BME280;57821;52.202;0.154;2023-04-30T04:59:00;102226.00;;;8.01;84.13
70407;BME280;57821;52.202;0.154;2023-04-30T05:01:26;102228.66;;;8.04;83.80
70407;BME280;57821;52.202;0.154;2023-04-30T05:03:53;102227.84;;;8.05;83.74
70407;BME280;57821;52.202;0.154;2023-04-30T05:06:20;102231.31;;;8.06;84.29
70407;BME280;57821;52.202;0.154;2023-04-30T05:08:47;102231.34;;;8.07;83.59
70407;BME280;57821;52.202;0.154;2023-04-30T05:11:13;102233.13;;;8.08;83.89
70407;BME280;57821;52.202;0.154;2023-04-30T05:13:41;102234.03;;;8.10;84.14
70407;BME280;57821;52.202;0.154;2023-04-30T05:16:07;102238.38;;;8.11;83.94
70407;BME280;57821;52.202;0.154;2023-04-30T05:18:34;102239.28;;;8.13;83.71
70407;BME280;57821;52.202;0.154;2023-04-30T05:21:00;102237.63;;;8.15;83.68
70407;BME280;57821;52.202;0.154;2023-04-30T05:23:27;102236.84;;;8.18;83.62
70407;BME280;57821;52.202;0.154;2023-04-30T05:25:53;102242.97;;;8.21;83.88
70407;BME280;57821;52.202;0.154;2023-04-30T05:28:20;102236.13;;;8.23;84.41
70407;BME280;57821;52.202;0.154;2023-04-30T05:30:46;102233.63;;;8.25;83.89
70407;BME280;57821;52.202;0.154;2023-04-30T05:33:13;102232.81;;;8.27;83.93
70407;BME280;57821;52.202;0.154;2023-04-30T05:35:39;102238.13;;;8.31;83.50
70407;BME280;57821;52.202;0.154;2023-04-30T05:38:06;102233.00;;;8.34;83.71
70407;BME280;57821;52.202;0.154;2023-04-30T05:40:33;102241.75;;;8.37;84.01
70407;BME280;57821;52.202;0.154;2023-04-30T05:42:59;102228.91;;;8.40;83.51
70407;BME280;57821;52.202;0.154;2023-04-30T05:45:26;102235.06;;;8.44;83.38
70407;BME280;57821;52.202;0.154;2023-04-30T05:47:52;102237.75;;;8.48;83.87
70407;BME280;57821;52.202;0.154;2023-04-30T05:50:19;102241.28;;;8.52;83.76
70407;BME280;57821;52.202;0.154;2023-04-30T05:52:45;102245.75;;;8.56;84.19
70407;BME280;57821;52.202;0.154;2023-04-30T05:55:12;102245.81;;;8.59;83.52
70407;BME280;57821;52.202;0.154;2023-04-30T05:57:38;102250.22;;;8.63;83.75
70407;BME280;57821;52.202;0.154;2023-04-30T06:00:05;102248.63;;;8.67;83.74
70407;BME280;57821;52.202;0.154;2023-04-30T06:02:37;102253.97;;;8.73;83.32
70407;BME280;57821;52.202;0.154;2023-04-30T06:05:06;102254.09;;;8.77;83.28
70407;BME280;57821;52.202;0.154;2023-04-30T06:07:33;102255.13;;;8.84;83.36
70407;BME280;57821;52.202;0.154;2023-04-30T06:10:00;102250.94;;;8.89;83.61
70407;BME280;57821;52.202;0.154;2023-04-30T06:12:26;102253.72;;;8.95;83.12
70407;BME280;57821;52.202;0.154;2023-04-30T06:14:53;102251.19;;;8.98;83.72
70407;BME280;57821;52.202;0.154;2023-04-30T06:17:19;102247.94;;;9.05;82.97
70407;BME280;57821;52.202;0.154;2023-04-30T06:19:46;102248.03;;;9.10;83.00
70407;BME280;57821;52.202;0.154;2023-04-30T06:22:12;102244.81;;;9.18;82.87
70407;BME280;57821;52.202;0.154;2023-04-30T06:24:39;102254.47;;;9.24;82.61
70407;BME280;57821;52.202;0.154;2023-04-30T06:27:05;102248.56;;;9.29;82.79
70407;BME280;57821;52.202;0.154;2023-04-30T06:29:32;102252.19;;;9.36;82.31
70407;BME280;57821;52.202;0.154;2023-04-30T06:31:58;102254.94;;;9.43;82.01
70407;BME280;57821;52.202;0.154;2023-04-30T06:34:26;102251.66;;;9.51;82.49
70407;BME280;57821;52.202;0.154;2023-04-30T06:36:52;102246.63;;;9.57;81.79
70407;BME280;57821;52.202;0.154;2023-04-30T06:39:19;102242.44;;;9.62;81.66
70407;BME280;57821;52.202;0.154;2023-04-30T06:41:45;102240.00;;;9.68;81.36
70407;BME280;57821;52.202;0.154;2023-04-30T06:44:13;102245.38;;;9.75;81.55
70407;BME280;57821;52.202;0.154;2023-04-30T06:46:40;102245.56;;;9.84;81.44
70407;BME280;57821;52.202;0.154;2023-04-30T06:49:06;102253.53;;;9.92;81.58
70407;BME280;57821;52.202;0.154;2023-04-30T06:51:33;102251.16;;;10.03;81.46
70407;BME280;57821;52.202;0.154;2023-04-30T06:53:59;102243.59;;;10.12;81.52
70407;BME280;57821;52.202;0.154;2023-04-30T06:56:26;102249.94;;;10.23;81.62
70407;BME280;57821;52.202;0.154;2023-04-30T06:58:52;102253.63;;;10.34;80.90
70407;BME280;57821;52.202;0.154;2023-04-30T07:01:19;102257.25;;;10.42;80.81
70407;BME280;57821;52.202;0.154;2023-04-30T07:03:45;102252.25;;;10.51;79.97
70407;BME280;57821;52.202;0.154;2023-04-30T07:06:12;102265.38;;;10.60;80.21
70407;BME280;57821;52.202;0.154;2023-04-30T07:08:39;102258.69;;;10.70;80.04
70407;BME280;57821;52.202;0.154;2023-04-30T07:11:05;102259.72;;;10.80;80.02
70407;BME280;57821;52.202;0.154;2023-04-30T07:13:32;102253.00;;;10.91;79.32
70407;BME280;57821;52.202;0.154;2023-04-30T07:15:58;102248.88;;;11.02;79.67
70407;BME280;57821;52.202;0.154;2023-04-30T07:18:25;102256.03;;;11.13;79.46
70407;BME280;57821;52.202;0.154;2023-04-30T07:20:51;102253.59;;;11.24;78.16
70407;BME280;57821;52.202;0.154;2023-04-30T07:23:18;102260.75;;;11.37;78.14
70407;BME280;57821;52.202;0.154;2023-04-30T07:25:44;102251.44;;;11.47;78.14
70407;BME280;57821;52.202;0.154;2023-04-30T07:28:11;102253.34;;;11.59;77.85
70407;BME280;57821;52.202;0.154;2023-04-30T07:30:37;102256.09;;;11.71;77.85
70407;BME280;57821;52.202;0.154;2023-04-30T07:33:04;102252.88;;;11.84;77.04
70407;BME280;57821;52.202;0.154;2023-04-30T07:35:30;102253.94;;;11.97;77.33
70407;BME280;57821;52.202;0.154;2023-04-30T07:37:57;102254.13;;;12.10;77.52
70407;BME280;57821;52.202;0.154;2023-04-30T07:40:23;102250.84;;;12.22;76.98
70407;BME280;57821;52.202;0.154;2023-04-30T07:43:01;102252.72;;;12.35;76.78
70407;BME280;57821;52.202;0.154;2023-04-30T07:45:28;102254.63;;;12.48;76.17
70407;BME280;57821;52.202;0.154;2023-04-30T07:47:54;102253.06;;;12.64;76.69
70407;BME280;57821;52.202;0.154;2023-04-30T07:50:21;102253.25;;;12.79;76.11
70407;BME280;57821;52.202;0.154;2023-04-30T07:52:48;102249.09;;;12.96;76.13
70407;BME280;57821;52.202;0.154;2023-04-30T07:55:15;102248.34;;;13.11;75.07
70407;BME280;57821;52.202;0.154;2023-04-30T07:57:41;102249.44;;;13.27;74.59
70407;BME280;57821;52.202;0.154;2023-04-30T08:00:08;102253.94;;;13.44;74.56
70407;BME280;57821;52.202;0.154;2023-04-30T08:02:37;102253.13;;;13.57;74.24
70407;BME280;57821;52.202;0.154;2023-04-30T08:05:04;102250.63;;;13.70;73.72
70407;BME280;57821;52.202;0.154;2023-04-30T08:07:31;102254.16;;;13.76;72.55
70407;BME280;57821;52.202;0.154;2023-04-30T08:09:57;102259.44;;;13.84;72.54
70407;BME280;57821;52.202;0.154;2023-04-30T08:12:24;102257.75;;;13.95;72.94
70407;BME280;57821;52.202;0.154;2023-04-30T08:14:58;102253.47;;;14.05;72.16
70407;BME280;57821;52.202;0.154;2023-04-30T08:17:25;102261.34;;;14.17;71.91
70407;BME280;57821;52.202;0.154;2023-04-30T08:19:52;102253.56;;;14.27;71.14
70407;BME280;57821;52.202;0.154;2023-04-30T08:22:18;102253.69;;;14.41;71.12
70407;BME280;57821;52.202;0.154;2023-04-30T08:24:45;102262.44;;;14.58;71.42
70407;BME280;57821;52.202;0.154;2023-04-30T08:27:12;102250.31;;;14.75;70.73
70407;BME280;57821;52.202;0.154;2023-04-30T08:29:38;102243.41;;;14.93;70.26
70407;BME280;57821;52.202;0.154;2023-04-30T08:32:05;102245.16;;;15.06;69.86
70407;BME280;57821;52.202;0.154;2023-04-30T08:34:31;102252.16;;;15.13;69.37
70407;BME280;57821;52.202;0.154;2023-04-30T08:36:58;102246.91;;;15.16;68.16
70407;BME280;57821;52.202;0.154;2023-04-30T08:39:24;102248.66;;;15.20;68.10
70407;BME280;57821;52.202;0.154;2023-04-30T08:41:55;102241.69;;;15.28;68.34
70407;BME280;57821;52.202;0.154;2023-04-30T08:44:22;102241.72;;;15.37;67.56
70407;BME280;57821;52.202;0.154;2023-04-30T08:46:53;102238.22;;;15.44;67.19
70407;BME280;57821;52.202;0.154;2023-04-30T08:49:21;102237.38;;;15.59;67.48
70407;BME280;57821;52.202;0.154;2023-04-30T08:51:50;102233.84;;;15.74;67.77
70407;BME280;57821;52.202;0.154;2023-04-30T08:54:18;102234.72;;;15.88;66.81
70407;BME280;57821;52.202;0.154;2023-04-30T08:56:45;102236.44;;;15.92;65.46
70407;BME280;57821;52.202;0.154;2023-04-30T08:59:12;102233.84;;;15.93;65.52
70407;BME280;57821;52.202;0.154;2023-04-30T09:01:40;102246.91;;;15.99;64.97
70407;BME280;57821;52.202;0.154;2023-04-30T09:04:06;102240.75;;;16.13;65.13
70407;BME280;57821;52.202;0.154;2023-04-30T09:06:33;102238.94;;;16.27;64.72
70407;BME280;57821;52.202;0.154;2023-04-30T09:09:14;102229.31;;;16.39;64.82
70407;BME280;57821;52.202;0.154;2023-04-30T09:11:41;102240.56;;;16.58;63.25
70407;BME280;57821;52.202;0.154;2023-04-30T09:14:07;102224.00;;;16.64;62.96
70407;BME280;57821;52.202;0.154;2023-04-30T09:16:48;102219.59;;;16.70;63.22
70407;BME280;57821;52.202;0.154;2023-04-30T09:19:25;102234.28;;;16.94;62.96
70407;BME280;57821;52.202;0.154;2023-04-30T09:21:53;102228.00;;;17.13;61.37
70407;BME280;57821;52.202;0.154;2023-04-30T09:24:21;102232.28;;;17.27;61.23
70407;BME280;57821;52.202;0.154;2023-04-30T09:26:48;102223.44;;;17.40;60.93
70407;BME280;57821;52.202;0.154;2023-04-30T09:29:14;102224.16;;;17.61;60.09
70407;BME280;57821;52.202;0.154;2023-04-30T09:31:45;102226.59;;;17.81;60.22
70407;BME280;57821;52.202;0.154;2023-04-30T09:34:12;102231.66;;;17.98;58.88
70407;BME280;57821;52.202;0.154;2023-04-30T09:36:52;102227.22;;;18.01;54.57
70407;BME280;57821;52.202;0.154;2023-04-30T09:39:19;102227.28;;;17.98;57.31
70407;BME280;57821;52.202;0.154;2023-04-30T09:41:45;102214.88;;;18.11;56.75
70407;BME280;57821;52.202;0.154;2023-04-30T09:44:30;102205.72;;;18.41;58.05
70407;BME280;57821;52.202;0.154;2023-04-30T09:46:57;102209.72;;;18.71;56.34
70407;BME280;57821;52.202;0.154;2023-04-30T09:49:24;102208.47;;;18.96;55.79
70407;BME280;57821;52.202;0.154;2023-04-30T09:51:59;102212.41;;;19.23;54.17
70407;BME280;57821;52.202;0.154;2023-04-30T09:54:28;102208.53;;;19.48;54.73
70407;BME280;57821;52.202;0.154;2023-04-30T09:57:00;102209.94;;;19.67;52.40
70407;BME280;57821;52.202;0.154;2023-04-30T09:59:29;102205.34;;;19.77;52.76
70407;BME280;57821;52.202;0.154;2023-04-30T10:02:00;102198.13;;;19.88;51.02
70407;BME280;57821;52.202;0.154;2023-04-30T10:04:29;102192.88;;;19.87;50.18
70407;BME280;57821;52.202;0.154;2023-04-30T10:06:56;102198.91;;;19.92;51.53
70407;BME280;57821;52.202;0.154;2023-04-30T10:09:35;102194.34;;;20.03;51.21
70407;BME280;57821;52.202;0.154;2023-04-30T10:12:08;102201.66;;;20.32;51.08
70407;BME280;57821;52.202;0.154;2023-04-30T10:14:46;102195.94;;;20.52;50.27
70407;BME280;57821;52.202;0.154;2023-04-30T10:17:15;102198.94;;;20.75;49.43
70407;BME280;57821;52.202;0.154;2023-04-30T10:19:46;102196.19;;;20.79;48.80
70407;BME280;57821;52.202;0.154;2023-04-30T10:22:13;102190.00;;;20.80;47.07
70407;BME280;57821;52.202;0.154;2023-04-30T10:24:41;102181.47;;;20.71;48.59
70407;BME280;57821;52.202;0.154;2023-04-30T10:27:08;102186.78;;;20.68;47.58
70407;BME280;57821;52.202;0.154;2023-04-30T10:29:34;102190.34;;;20.67;48.21
70407;BME280;57821;52.202;0.154;2023-04-30T10:32:02;102179.53;;;20.79;47.91
70407;BME280;57821;52.202;0.154;2023-04-30T10:37:26;102177.50;;;20.90;47.04
70407;BME280;57821;52.202;0.154;2023-04-30T10:39:56;102179.84;;;21.02;46.83
70407;BME280;57821;52.202;0.154;2023-04-30T10:42:23;102179.59;;;21.11;47.01
70407;BME280;57821;52.202;0.154;2023-04-30T10:44:49;102170.41;;;21.27;46.51
70407;BME280;57821;52.202;0.154;2023-04-30T10:47:16;102174.38;;;21.44;46.54
70407;BME280;57821;52.202;0.154;2023-04-30T10:49:45;102162.59;;;21.57;45.79
70407;BME280;57821;52.202;0.154;2023-04-30T10:52:12;102173.66;;;21.71;45.16
70407;BME280;57821;52.202;0.154;2023-04-30T10:54:39;102171.63;;;21.81;44.78
70407;BME280;57821;52.202;0.154;2023-04-30T10:57:15;102169.50;;;21.93;44.25
70407;BME280;57821;52.202;0.154;2023-04-30T10:59:44;102165.09;;;21.94;44.08
70407;BME280;57821;52.202;0.154;2023-04-30T11:02:11;102157.16;;;21.95;43.98
70407;BME280;57821;52.202;0.154;2023-04-30T11:07:32;102148.63;;;22.15;43.75
70407;BME280;57821;52.202;0.154;2023-04-30T11:10:00;102140.75;;;22.13;42.53
70407;BME280;57821;52.202;0.154;2023-04-30T11:12:27;102135.47;;;22.13;43.39
70407;BME280;57821;52.202;0.154;2023-04-30T11:15:11;102132.53;;;22.24;42.94
70407;BME280;57821;52.202;0.154;2023-04-30T11:17:38;102124.31;;;22.33;42.74
70407;BME280;57821;52.202;0.154;2023-04-30T11:20:06;102127.63;;;22.40;42.81
70407;BME280;57821;52.202;0.154;2023-04-30T11:22:37;102118.66;;;22.45;42.04
70407;BME280;57821;52.202;0.154;2023-04-30T11:25:11;102110.09;;;22.37;42.09
70407;BME280;57821;52.202;0.154;2023-04-30T11:27:42;102116.16;;;22.41;42.71
70407;BME280;57821;52.202;0.154;2023-04-30T11:30:11;102118.50;;;22.50;43.41
70407;BME280;57821;52.202;0.154;2023-04-30T11:32:38;102107.53;;;22.62;42.89
70407;BME280;57821;52.202;0.154;2023-04-30T11:35:05;102106.22;;;22.77;42.84
70407;BME280;57821;52.202;0.154;2023-04-30T11:37:40;102100.81;;;22.80;40.87
70407;BME280;57821;52.202;0.154;2023-04-30T11:40:08;102098.16;;;22.80;42.19
70407;BME280;57821;52.202;0.154;2023-04-30T11:42:36;102088.94;;;22.91;42.10
70407;BME280;57821;52.202;0.154;2023-04-30T11:45:07;102101.75;;;23.04;41.15
70407;BME280;57821;52.202;0.154;2023-04-30T11:50:06;102086.34;;;22.90;40.72
70407;BME280;57821;52.202;0.154;2023-04-30T11:52:33;102092.13;;;23.01;40.51
70407;BME280;57821;52.202;0.154;2023-04-30T11:55:00;102093.63;;;23.10;40.89
70407;BME280;57821;52.202;0.154;2023-04-30T11:57:33;102096.88;;;23.18;40.34
70407;BME280;57821;52.202;0.154;2023-04-30T12:00:07;102085.50;;;23.14;39.46
70407;BME280;57821;52.202;0.154;2023-04-30T12:02:34;102081.31;;;23.09;40.33
70407;BME280;57821;52.202;0.154;2023-04-30T12:05:01;102075.91;;;23.12;40.43
70407;BME280;57821;52.202;0.154;2023-04-30T12:07:27;102073.16;;;23.15;40.03
70407;BME280;57821;52.202;0.154;2023-04-30T12:09:54;102077.41;;;23.19;39.34
70407;BME280;57821;52.202;0.154;2023-04-30T12:12:28;102077.31;;;23.22;38.27
70407;BME280;57821;52.202;0.154;2023-04-30T12:14:55;102082.59;;;23.22;38.56
70407;BME280;57821;52.202;0.154;2023-04-30T12:17:34;102081.22;;;23.12;37.40
70407;BME280;57821;52.202;0.154;2023-04-30T12:20:01;102071.72;;;23.06;38.66
70407;BME280;57821;52.202;0.154;2023-04-30T12:22:27;102063.38;;;22.92;37.88
70407;BME280;57821;52.202;0.154;2023-04-30T12:24:54;102063.13;;;22.73;37.96
70407;BME280;57821;52.202;0.154;2023-04-30T12:27:22;102068.00;;;22.59;38.84
70407;BME280;57821;52.202;0.154;2023-04-30T12:29:48;102066.22;;;22.60;38.63
70407;BME280;57821;52.202;0.154;2023-04-30T12:32:18;102065.56;;;22.53;38.86
70407;BME280;57821;52.202;0.154;2023-04-30T12:34:46;102062.09;;;22.51;39.15
70407;BME280;57821;52.202;0.154;2023-04-30T12:37:16;102056.09;;;22.46;39.48
70407;BME280;57821;52.202;0.154;2023-04-30T12:39:43;102056.09;;;22.46;39.38
70407;BME280;57821;52.202;0.154;2023-04-30T12:42:09;102048.81;;;22.52;39.67
70407;BME280;57821;52.202;0.154;2023-04-30T12:44:43;102039.81;;;22.58;39.35
70407;BME280;57821;52.202;0.154;2023-04-30T12:47:09;102036.31;;;22.58;39.24
70407;BME280;57821;52.202;0.154;2023-04-30T12:49:36;102031.13;;;22.54;39.03
70407;BME280;57821;52.202;0.154;2023-04-30T12:52:04;102033.84;;;22.53;39.24
70407;BME280;57821;52.202;0.154;2023-04-30T12:54:32;102046.34;;;22.48;39.14
70407;BME280;57821;52.202;0.154;2023-04-30T12:59:32;102044.13;;;22.34;39.43
70407;BME280;57821;52.202;0.154;2023-04-30T13:04:35;102030.78;;;22.39;39.96
70407;BME280;57821;52.202;0.154;2023-04-30T13:07:02;102034.03;;;22.47;39.06
70407;BME280;57821;52.202;0.154;2023-04-30T13:09:31;102026.91;;;22.49;38.92
70407;BME280;57821;52.202;0.154;2023-04-30T13:11:58;102020.81;;;22.47;39.11
70407;BME280;57821;52.202;0.154;2023-04-30T13:14:24;102019.03;;;22.47;39.33
70407;BME280;57821;52.202;0.154;2023-04-30T13:16:50;102021.63;;;22.49;39.16
70407;BME280;57821;52.202;0.154;2023-04-30T13:19:17;102018.06;;;22.50;38.62
70407;BME280;57821;52.202;0.154;2023-04-30T13:21:43;102019.03;;;22.47;39.20
70407;BME280;57821;52.202;0.154;2023-04-30T13:24:10;102010.34;;;22.44;38.95
70407;BME280;57821;52.202;0.154;2023-04-30T13:26:37;102005.97;;;22.43;39.32
70407;BME280;57821;52.202;0.154;2023-04-30T13:29:04;102010.03;;;22.53;39.55